Terminal Aerodrome Forecast
Issued by NWS Billings, MT

Home | Current Version | Previous Version | Graphics & Text | Print | Product List | Glossary On
Versions: 1 2 3 4 5 6 7 8 9 10 11 12 13 14 15 16 17 18 19 20 21 22 23 24 25 26 27 28 29 30 31 32 33 34 35 36
000
FTUS45 KBYZ 272228 AAA
TAFMLS
TAF AMD
KMLS 272228Z 2722/2818 31015G30KT P6SM VCTS FEW080CB BKN100
      TEMPO 2800/2801 5SM -TSRA SCT080CB
     FM280300 01010KT P6SM FEW050 SCT120
     FM280900 19006KT P6SM SCT250=

USA.gov is the U.S. government's official web portal to all federal, state and local government web resources and services.